sensor_id;sensor_type;location;lat;lon;timestamp;pressure;altitude;pressure_sealevel;temperature;humidity
12991;BME280;6560;57.692;11.958;2024-01-11T00:00:33;102860.72;;;8.33;100.00
12991;BME280;6560;57.692;11.958;2024-01-11T00:02:58;102842.56;;;8.13;100.00
12991;BME280;6560;57.692;11.958;2024-01-11T00:05:24;102804.97;;;8.21;100.00
12991;BME280;6560;57.692;11.958;2024-01-11T00:07:49;102856.72;;;7.99;100.00
12991;BME280;6560;57.692;11.958;2024-01-11T00:10:15;102824.25;;;7.99;100.00
12991;BME280;6560;57.692;11.958;2024-01-11T00:12:41;102852.13;;;8.20;100.00
12991;BME280;6560;57.692;11.958;2024-01-11T00:15:07;102812.16;;;7.71;100.00
12991;BME280;6560;57.692;11.958;2024-01-11T00:17:32;102799.00;;;7.78;100.00
12991;BME280;6560;57.692;11.958;2024-01-11T00:19:57;102794.50;;;7.70;100.00
12991;BME280;6560;57.692;11.958;2024-01-11T00:22:23;102813.59;;;7.83;100.00
12991;BME280;6560;57.692;11.958;2024-01-11T00:24:48;102792.13;;;7.50;100.00
12991;BME280;6560;57.692;11.958;2024-01-11T00:27:14;102818.16;;;7.70;100.00
12991;BME280;6560;57.692;11.958;2024-01-11T00:29:39;102833.47;;;7.88;100.00
12991;BME280;6560;57.692;11.958;2024-01-11T00:32:05;102839.28;;;7.93;100.00
12991;BME280;6560;57.692;11.958;2024-01-11T00:34:30;102797.91;;;7.62;100.00
12991;BME280;6560;57.692;11.958;2024-01-11T00:36:56;102815.25;;;7.90;100.00
12991;BME280;6560;57.692;11.958;2024-01-11T00:39:21;102812.31;;;7.80;100.00
12991;BME280;6560;57.692;11.958;2024-01-11T00:41:46;102750.66;;;7.62;100.00
12991;BME280;6560;57.692;11.958;2024-01-11T00:44:12;102800.03;;;7.94;100.00
12991;BME280;6560;57.692;11.958;2024-01-11T00:46:37;102795.88;;;7.59;100.00
12991;BME280;6560;57.692;11.958;2024-01-11T00:49:09;102781.34;;;7.84;100.00
12991;BME280;6560;57.692;11.958;2024-01-11T00:51:35;102761.03;;;7.90;100.00
12991;BME280;6560;57.692;11.958;2024-01-11T00:54:01;102744.69;;;7.56;100.00
12991;BME280;6560;57.692;11.958;2024-01-11T00:56:26;102751.53;;;7.77;100.00
12991;BME280;6560;57.692;11.958;2024-01-11T00:58:52;102809.88;;;8.18;100.00
12991;BME280;6560;57.692;11.958;2024-01-11T01:01:18;102778.75;;;7.77;100.00
12991;BME280;6560;57.692;11.958;2024-01-11T01:03:43;102757.97;;;7.65;100.00
12991;BME280;6560;57.692;11.958;2024-01-11T01:06:09;102815.97;;;8.03;100.00
12991;BME280;6560;57.692;11.958;2024-01-11T01:08:34;102811.69;;;7.89;100.00
12991;BME280;6560;57.692;11.958;2024-01-11T01:11:00;102812.03;;;8.07;100.00
12991;BME280;6560;57.692;11.958;2024-01-11T01:13:26;102812.31;;;7.80;100.00
12991;BME280;6560;57.692;11.958;2024-01-11T01:15:51;102795.66;;;7.72;100.00
12991;BME280;6560;57.692;11.958;2024-01-11T01:18:16;102784.00;;;7.70;100.00
12991;BME280;6560;57.692;11.958;2024-01-11T01:20:42;102784.72;;;7.76;100.00
12991;BME280;6560;57.692;11.958;2024-01-11T01:23:07;102816.00;;;7.96;100.00
12991;BME280;6560;57.692;11.958;2024-01-11T01:25:33;102807.78;;;7.86;100.00
12991;BME280;6560;57.692;11.958;2024-01-11T01:27:58;102810.53;;;7.94;100.00
12991;BME280;6560;57.692;11.958;2024-01-11T01:30:26;102792.63;;;7.76;100.00
12991;BME280;6560;57.692;11.958;2024-01-11T01:32:52;102806.69;;;7.77;100.00
12991;BME280;6560;57.692;11.958;2024-01-11T01:35:17;102775.47;;;7.36;100.00
12991;BME280;6560;57.692;11.958;2024-01-11T01:37:43;102825.13;;;7.55;100.00
12991;BME280;6560;57.692;11.958;2024-01-11T01:40:08;102792.88;;;7.56;100.00
12991;BME280;6560;57.692;11.958;2024-01-11T01:42:34;102823.06;;;7.53;100.00
12991;BME280;6560;57.692;11.958;2024-01-11T01:45:00;102824.78;;;7.45;100.00
12991;BME280;6560;57.692;11.958;2024-01-11T01:47:26;102818.78;;;7.39;100.00
12991;BME280;6560;57.692;11.958;2024-01-11T01:49:53;102820.47;;;7.39;100.00
12991;BME280;6560;57.692;11.958;2024-01-11T01:52:21;102775.34;;;7.27;100.00
12991;BME280;6560;57.692;11.958;2024-01-11T01:54:48;102798.38;;;7.30;100.00
12991;BME280;6560;57.692;11.958;2024-01-11T01:57:16;102789.38;;;7.35;100.00
12991;BME280;6560;57.692;11.958;2024-01-11T01:59:43;102792.97;;;7.28;100.00
12991;BME280;6560;57.692;11.958;2024-01-11T02:02:09;102797.81;;;7.25;100.00
12991;BME280;6560;57.692;11.958;2024-01-11T02:04:35;102805.69;;;7.18;100.00
12991;BME280;6560;57.692;11.958;2024-01-11T02:07:01;102763.59;;;6.95;100.00
12991;BME280;6560;57.692;11.958;2024-01-11T02:09:28;102808.88;;;7.15;100.00
12991;BME280;6560;57.692;11.958;2024-01-11T02:11:54;102747.13;;;6.75;100.00
12991;BME280;6560;57.692;11.958;2024-01-11T02:14:20;102798.78;;;6.97;100.00
12991;BME280;6560;57.692;11.958;2024-01-11T02:16:45;102772.94;;;6.72;100.00
12991;BME280;6560;57.692;11.958;2024-01-11T02:19:17;102765.81;;;6.43;100.00
12991;BME280;6560;57.692;11.958;2024-01-11T02:21:46;102759.09;;;6.87;100.00
12991;BME280;6560;57.692;11.958;2024-01-11T02:24:12;102777.25;;;6.71;100.00
12991;BME280;6560;57.692;11.958;2024-01-11T02:26:59;102780.44;;;6.76;100.00
12991;BME280;6560;57.692;11.958;2024-01-11T02:29:25;102777.44;;;6.87;100.00
12991;BME280;6560;57.692;11.958;2024-01-11T02:31:51;102792.97;;;7.14;100.00
12991;BME280;6560;57.692;11.958;2024-01-11T02:34:16;102750.84;;;6.84;100.00
12991;BME280;6560;57.692;11.958;2024-01-11T02:36:42;102749.34;;;6.86;100.00
12991;BME280;6560;57.692;11.958;2024-01-11T02:39:08;102805.34;;;7.01;100.00
12991;BME280;6560;57.692;11.958;2024-01-11T02:41:34;102784.38;;;7.01;100.00
12991;BME280;6560;57.692;11.958;2024-01-11T02:44:01;102783.97;;;6.84;100.00
12991;BME280;6560;57.692;11.958;2024-01-11T02:46:26;102760.97;;;6.74;100.00
12991;BME280;6560;57.692;11.958;2024-01-11T02:48:51;102797.81;;;6.90;100.00
12991;BME280;6560;57.692;11.958;2024-01-11T02:51:17;102759.09;;;6.66;100.00
12991;BME280;6560;57.692;11.958;2024-01-11T02:53:43;102785.44;;;6.46;100.00
12991;BME280;6560;57.692;11.958;2024-01-11T02:56:08;102790.91;;;6.55;100.00
12991;BME280;6560;57.692;11.958;2024-01-11T02:58:34;102788.28;;;6.55;100.00
12991;BME280;6560;57.692;11.958;2024-01-11T03:00:59;102761.88;;;6.39;100.00
12991;BME280;6560;57.692;11.958;2024-01-11T03:03:25;102758.09;;;6.23;100.00
12991;BME280;6560;57.692;11.958;2024-01-11T03:05:50;102791.09;;;6.70;100.00
12991;BME280;6560;57.692;11.958;2024-01-11T03:08:15;102741.31;;;6.49;100.00
12991;BME280;6560;57.692;11.958;2024-01-11T03:10:41;102754.16;;;6.26;100.00
12991;BME280;6560;57.692;11.958;2024-01-11T03:13:07;102751.00;;;6.57;100.00
12991;BME280;6560;57.692;11.958;2024-01-11T03:15:33;102802.81;;;6.31;100.00
12991;BME280;6560;57.692;11.958;2024-01-11T03:17:58;102818.94;;;6.34;100.00
12991;BME280;6560;57.692;11.958;2024-01-11T03:20:24;102787.44;;;6.13;100.00
12991;BME280;6560;57.692;11.958;2024-01-11T03:22:52;102775.81;;;6.11;100.00
12991;BME280;6560;57.692;11.958;2024-01-11T03:25:18;102809.69;;;6.10;100.00
12991;BME280;6560;57.692;11.958;2024-01-11T03:27:44;102809.00;;;6.32;100.00
12991;BME280;6560;57.692;11.958;2024-01-11T03:30:10;102800.78;;;6.29;100.00
12991;BME280;6560;57.692;11.958;2024-01-11T03:32:35;102778.50;;;6.32;100.00
12991;BME280;6560;57.692;11.958;2024-01-11T03:35:01;102768.78;;;6.31;100.00
12991;BME280;6560;57.692;11.958;2024-01-11T03:37:26;102798.13;;;6.22;100.00
12991;BME280;6560;57.692;11.958;2024-01-11T03:39:52;102739.28;;;5.91;100.00
12991;BME280;6560;57.692;11.958;2024-01-11T03:42:17;102796.78;;;6.18;100.00
12991;BME280;6560;57.692;11.958;2024-01-11T03:44:43;102762.13;;;5.92;100.00
12991;BME280;6560;57.692;11.958;2024-01-11T03:47:08;102790.44;;;6.09;100.00
12991;BME280;6560;57.692;11.958;2024-01-11T03:49:34;102779.16;;;5.96;100.00
12991;BME280;6560;57.692;11.958;2024-01-11T03:51:59;102782.94;;;6.12;100.00
12991;BME280;6560;57.692;11.958;2024-01-11T03:54:24;102753.94;;;6.11;100.00
12991;BME280;6560;57.692;11.958;2024-01-11T03:56:50;102737.09;;;6.02;100.00
12991;BME280;6560;57.692;11.958;2024-01-11T03:59:15;102739.91;;;6.03;100.00
12991;BME280;6560;57.692;11.958;2024-01-11T04:01:41;102753.38;;;6.06;100.00
12991;BME280;6560;57.692;11.958;2024-01-11T04:04:07;102754.16;;;6.19;100.00
12991;BME280;6560;57.692;11.958;2024-01-11T04:06:33;102724.19;;;5.96;100.00
12991;BME280;6560;57.692;11.958;2024-01-11T04:08:58;102755.25;;;6.07;100.00
12991;BME280;6560;57.692;11.958;2024-01-11T04:11:27;102761.56;;;5.95;100.00
12991;BME280;6560;57.692;11.958;2024-01-11T04:13:52;102736.00;;;5.66;100.00
12991;BME280;6560;57.692;11.958;2024-01-11T04:16:18;102775.88;;;5.77;100.00
12991;BME280;6560;57.692;11.958;2024-01-11T04:18:43;102763.66;;;5.64;100.00
12991;BME280;6560;57.692;11.958;2024-01-11T04:21:22;102740.09;;;5.56;100.00
12991;BME280;6560;57.692;11.958;2024-01-11T04:23:48;102783.25;;;5.60;100.00
12991;BME280;6560;57.692;11.958;2024-01-11T04:26:13;102776.47;;;5.48;100.00
12991;BME280;6560;57.692;11.958;2024-01-11T04:28:39;102763.06;;;5.25;100.00
12991;BME280;6560;57.692;11.958;2024-01-11T04:31:04;102772.78;;;5.26;100.00
12991;BME280;6560;57.692;11.958;2024-01-11T04:33:30;102756.66;;;5.16;100.00
12991;BME280;6560;57.692;11.958;2024-01-11T04:35:55;102722.47;;;4.88;100.00
12991;BME280;6560;57.692;11.958;2024-01-11T04:38:20;102753.06;;;5.08;100.00
12991;BME280;6560;57.692;11.958;2024-01-11T04:40:46;102782.28;;;5.18;100.00
12991;BME280;6560;57.692;11.958;2024-01-11T04:43:11;102771.31;;;5.01;100.00
12991;BME280;6560;57.692;11.958;2024-01-11T04:45:37;102773.94;;;5.01;100.00
12991;BME280;6560;57.692;11.958;2024-01-11T04:48:02;102779.66;;;4.92;100.00
12991;BME280;6560;57.692;11.958;2024-01-11T04:50:28;102775.03;;;4.76;100.00
12991;BME280;6560;57.692;11.958;2024-01-11T04:52:53;102771.22;;;4.48;100.00
12991;BME280;6560;57.692;11.958;2024-01-11T04:55:19;102773.78;;;4.60;100.00
12991;BME280;6560;57.692;11.958;2024-01-11T04:57:44;102784.34;;;4.74;100.00
12991;BME280;6560;57.692;11.958;2024-01-11T05:00:10;102735.41;;;4.47;100.00
12991;BME280;6560;57.692;11.958;2024-01-11T05:02:35;102770.09;;;4.65;100.00
12991;BME280;6560;57.692;11.958;2024-01-11T05:05:01;102778.88;;;4.66;100.00
12991;BME280;6560;57.692;11.958;2024-01-11T05:07:32;102789.94;;;4.51;100.00
12991;BME280;6560;57.692;11.958;2024-01-11T05:09:59;102751.13;;;4.34;100.00
12991;BME280;6560;57.692;11.958;2024-01-11T05:12:25;102790.53;;;4.55;100.00
12991;BME280;6560;57.692;11.958;2024-01-11T05:14:50;102738.94;;;4.27;100.00
12991;BME280;6560;57.692;11.958;2024-01-11T05:17:16;102771.38;;;4.42;100.00
12991;BME280;6560;57.692;11.958;2024-01-11T05:19:41;102790.38;;;4.41;100.00
12991;BME280;6560;57.692;11.958;2024-01-11T05:22:06;102770.28;;;4.27;100.00
12991;BME280;6560;57.692;11.958;2024-01-11T05:24:32;102787.59;;;4.39;100.00
12991;BME280;6560;57.692;11.958;2024-01-11T05:26:58;102789.56;;;4.35;100.00
12991;BME280;6560;57.692;11.958;2024-01-11T05:29:24;102751.13;;;4.14;100.00
12991;BME280;6560;57.692;11.958;2024-01-11T05:31:49;102764.94;;;4.13;100.00
12991;BME280;6560;57.692;11.958;2024-01-11T05:34:15;102769.59;;;4.16;100.00
12991;BME280;6560;57.692;11.958;2024-01-11T05:36:40;102746.69;;;4.33;100.00
12991;BME280;6560;57.692;11.958;2024-01-11T05:39:06;102762.56;;;4.22;100.00
12991;BME280;6560;57.692;11.958;2024-01-11T05:41:37;102756.69;;;4.10;100.00
12991;BME280;6560;57.692;11.958;2024-01-11T05:44:03;102763.22;;;4.26;100.00
12991;BME280;6560;57.692;11.958;2024-01-11T05:46:29;102772.63;;;4.19;100.00
12991;BME280;6560;57.692;11.958;2024-01-11T05:48:55;102756.81;;;4.05;100.00
12991;BME280;6560;57.692;11.958;2024-01-11T05:51:20;102783.59;;;4.16;100.00
12991;BME280;6560;57.692;11.958;2024-01-11T05:53:46;102759.34;;;3.97;100.00
12991;BME280;6560;57.692;11.958;2024-01-11T05:56:11;102787.75;;;4.21;100.00
12991;BME280;6560;57.692;11.958;2024-01-11T05:58:36;102724.31;;;3.83;100.00
12991;BME280;6560;57.692;11.958;2024-01-11T06:01:03;102732.44;;;3.91;100.00
12991;BME280;6560;57.692;11.958;2024-01-11T06:03:29;102769.53;;;4.09;100.00
12991;BME280;6560;57.692;11.958;2024-01-11T06:05:55;102787.28;;;4.11;100.00
12991;BME280;6560;57.692;11.958;2024-01-11T06:08:20;102812.78;;;3.94;100.00
12991;BME280;6560;57.692;11.958;2024-01-11T06:10:46;102771.97;;;3.94;100.00
12991;BME280;6560;57.692;11.958;2024-01-11T06:13:11;102792.53;;;3.98;100.00
12991;BME280;6560;57.692;11.958;2024-01-11T06:15:37;102804.41;;;4.09;100.00
12991;BME280;6560;57.692;11.958;2024-01-11T06:18:02;102805.63;;;4.18;100.00
12991;BME280;6560;57.692;11.958;2024-01-11T06:20:28;102764.59;;;3.85;100.00
12991;BME280;6560;57.692;11.958;2024-01-11T06:22:53;102802.00;;;4.11;100.00
12991;BME280;6560;57.692;11.958;2024-01-11T06:25:19;102795.50;;;4.14;100.00
12991;BME280;6560;57.692;11.958;2024-01-11T06:27:44;102788.22;;;4.12;100.00
12991;BME280;6560;57.692;11.958;2024-01-11T06:30:10;102775.09;;;4.05;100.00
12991;BME280;6560;57.692;11.958;2024-01-11T06:32:35;102782.38;;;4.07;100.00
12991;BME280;6560;57.692;11.958;2024-01-11T06:35:01;102778.00;;;4.13;100.00
12991;BME280;6560;57.692;11.958;2024-01-11T06:37:27;102754.56;;;3.88;100.00
12991;BME280;6560;57.692;11.958;2024-01-11T06:39:53;102789.50;;;3.95;100.00
12991;BME280;6560;57.692;11.958;2024-01-11T06:42:18;102792.75;;;4.00;100.00
12991;BME280;6560;57.692;11.958;2024-01-11T06:44:44;102757.41;;;3.77;100.00
12991;BME280;6560;57.692;11.958;2024-01-11T06:47:09;102790.56;;;3.90;100.00
12991;BME280;6560;57.692;11.958;2024-01-11T06:49:38;102777.47;;;3.71;100.00
12991;BME280;6560;57.692;11.958;2024-01-11T06:52:04;102755.56;;;3.63;100.00
12991;BME280;6560;57.692;11.958;2024-01-11T06:54:29;102802.47;;;3.88;100.00
12991;BME280;6560;57.692;11.958;2024-01-11T06:56:56;102809.63;;;4.09;100.00
12991;BME280;6560;57.692;11.958;2024-01-11T06:59:22;102787.22;;;3.91;100.00
12991;BME280;6560;57.692;11.958;2024-01-11T07:01:47;102817.50;;;3.96;100.00
12991;BME280;6560;57.692;11.958;2024-01-11T07:04:12;102810.94;;;3.93;100.00
12991;BME280;6560;57.692;11.958;2024-01-11T07:06:38;102819.56;;;3.99;100.00
12991;BME280;6560;57.692;11.958;2024-01-11T07:09:03;102818.81;;;4.13;100.00
12991;BME280;6560;57.692;11.958;2024-01-11T07:11:31;102819.03;;;4.01;100.00
12991;BME280;6560;57.692;11.958;2024-01-11T07:13:57;102792.97;;;3.89;100.00
12991;BME280;6560;57.692;11.958;2024-01-11T07:16:23;102784.03;;;3.87;100.00
12991;BME280;6560;57.692;11.958;2024-01-11T07:18:49;102812.78;;;3.94;100.00
12991;BME280;6560;57.692;11.958;2024-01-11T07:21:21;102833.66;;;4.07;100.00
12991;BME280;6560;57.692;11.958;2024-01-11T07:23:48;102822.28;;;4.06;100.00
12991;BME280;6560;57.692;11.958;2024-01-11T07:26:13;102832.91;;;4.08;100.00
12991;BME280;6560;57.692;11.958;2024-01-11T07:28:39;102803.84;;;3.92;100.00
12991;BME280;6560;57.692;11.958;2024-01-11T07:31:06;102829.69;;;4.03;100.00
12991;BME280;6560;57.692;11.958;2024-01-11T07:33:31;102822.38;;;4.00;100.00
12991;BME280;6560;57.692;11.958;2024-01-11T07:35:57;102774.66;;;3.69;100.00
12991;BME280;6560;57.692;11.958;2024-01-11T07:38:22;102789.63;;;3.32;100.00
12991;BME280;6560;57.692;11.958;2024-01-11T07:40:47;102838.81;;;3.87;100.00
12991;BME280;6560;57.692;11.958;2024-01-11T07:43:13;102817.25;;;4.08;100.00
12991;BME280;6560;57.692;11.958;2024-01-11T07:45:39;102816.38;;;3.69;100.00
12991;BME280;6560;57.692;11.958;2024-01-11T07:48:05;102840.59;;;3.55;100.00
12991;BME280;6560;57.692;11.958;2024-01-11T07:50:30;102841.03;;;3.58;100.00
12991;BME280;6560;57.692;11.958;2024-01-11T07:52:56;102849.78;;;3.59;100.00
12991;BME280;6560;57.692;11.958;2024-01-11T07:55:21;102811.91;;;3.43;100.00
12991;BME280;6560;57.692;11.958;2024-01-11T07:57:49;102807.00;;;3.51;100.00
12991;BME280;6560;57.692;11.958;2024-01-11T08:00:15;102829.13;;;3.60;100.00
12991;BME280;6560;57.692;11.958;2024-01-11T08:02:41;102825.38;;;3.58;100.00
12991;BME280;6560;57.692;11.958;2024-01-11T08:05:06;102819.56;;;3.54;100.00
12991;BME280;6560;57.692;11.958;2024-01-11T08:07:32;102792.53;;;3.41;100.00
12991;BME280;6560;57.692;11.958;2024-01-11T08:09:58;102813.91;;;3.51;100.00
12991;BME280;6560;57.692;11.958;2024-01-11T08:12:23;102793.25;;;3.52;100.00
12991;BME280;6560;57.692;11.958;2024-01-11T08:14:48;102808.28;;;3.60;100.00
12991;BME280;6560;57.692;11.958;2024-01-11T08:17:14;102839.13;;;3.83;100.00
12991;BME280;6560;57.692;11.958;2024-01-11T08:19:41;102842.59;;;4.09;100.00
12991;BME280;6560;57.692;11.958;2024-01-11T08:22:08;102823.94;;;4.06;100.00
12991;BME280;6560;57.692;11.958;2024-01-11T08:24:35;102839.22;;;3.90;100.00
12991;BME280;6560;57.692;11.958;2024-01-11T08:27:00;102804.53;;;4.04;100.00
12991;BME280;6560;57.692;11.958;2024-01-11T08:29:26;102820.44;;;4.25;100.00
12991;BME280;6560;57.692;11.958;2024-01-11T08:31:53;102842.44;;;4.39;100.00
12991;BME280;6560;57.692;11.958;2024-01-11T08:34:20;102837.22;;;4.39;100.00
12991;BME280;6560;57.692;11.958;2024-01-11T08:36:45;102789.56;;;4.15;100.00
12991;BME280;6560;57.692;11.958;2024-01-11T08:39:11;102826.34;;;4.36;100.00
12991;BME280;6560;57.692;11.958;2024-01-11T08:41:38;102839.75;;;4.32;100.00
12991;BME280;6560;57.692;11.958;2024-01-11T08:44:04;102849.56;;;4.28;100.00
12991;BME280;6560;57.692;11.958;2024-01-11T08:46:32;102830.47;;;4.22;100.00
12991;BME280;6560;57.692;11.958;2024-01-11T08:48:59;102853.78;;;4.40;100.00
12991;BME280;6560;57.692;11.958;2024-01-11T08:51:25;102862.78;;;4.42;100.00
12991;BME280;6560;57.692;11.958;2024-01-11T08:53:50;102863.38;;;4.47;100.00
12991;BME280;6560;57.692;11.958;2024-01-11T08:56:16;102830.63;;;4.36;100.00
12991;BME280;6560;57.692;11.958;2024-01-11T08:58:42;102871.13;;;4.52;100.00
12991;BME280;6560;57.692;11.958;2024-01-11T09:01:08;102865.28;;;4.67;100.00
12991;BME280;6560;57.692;11.958;2024-01-11T09:03:34;102885.59;;;4.82;100.00
12991;BME280;6560;57.692;11.958;2024-01-11T09:06:06;102871.59;;;4.82;100.00
12991;BME280;6560;57.692;11.958;2024-01-11T09:08:32;102872.25;;;4.94;100.00
12991;BME280;6560;57.692;11.958;2024-01-11T09:10:59;102874.94;;;5.01;100.00
12991;BME280;6560;57.692;11.958;2024-01-11T09:13:25;102897.66;;;5.14;100.00
12991;BME280;6560;57.692;11.958;2024-01-11T09:15:54;102886.59;;;5.30;100.00
12991;BME280;6560;57.692;11.958;2024-01-11T09:18:20;102875.03;;;5.35;100.00
12991;BME280;6560;57.692;11.958;2024-01-11T09:20:45;102854.66;;;5.32;100.00
12991;BME280;6560;57.692;11.958;2024-01-11T09:23:11;102854.59;;;5.25;100.00
12991;BME280;6560;57.692;11.958;2024-01-11T09:25:45;102878.34;;;5.53;100.00
12991;BME280;6560;57.692;11.958;2024-01-11T09:28:11;102885.88;;;5.57;100.00
12991;BME280;6560;57.692;11.958;2024-01-11T09:30:36;102842.59;;;5.20;100.00
12991;BME280;6560;57.692;11.958;2024-01-11T09:33:02;102860.91;;;5.20;100.00
12991;BME280;6560;57.692;11.958;2024-01-11T09:35:27;102863.38;;;5.26;100.00
12991;BME280;6560;57.692;11.958;2024-01-11T09:37:53;102865.91;;;5.38;100.00
12991;BME280;6560;57.692;11.958;2024-01-11T09:40:19;102847.94;;;5.34;100.00
12991;BME280;6560;57.692;11.958;2024-01-11T09:42:44;102795.03;;;5.03;100.00
12991;BME280;6560;57.692;11.958;2024-01-11T09:45:13;102893.16;;;5.60;100.00
12991;BME280;6560;57.692;11.958;2024-01-11T09:47:39;102897.13;;;5.64;100.00
12991;BME280;6560;57.692;11.958;2024-01-11T09:50:06;102905.34;;;5.67;100.00
12991;BME280;6560;57.692;11.958;2024-01-11T09:52:32;102812.97;;;5.60;100.00
12991;BME280;6560;57.692;11.958;2024-01-11T09:54:59;102880.22;;;6.08;100.00
12991;BME280;6560;57.692;11.958;2024-01-11T09:57:28;102908.09;;;6.56;100.00
12991;BME280;6560;57.692;11.958;2024-01-11T09:59:55;102830.31;;;5.87;100.00
12991;BME280;6560;57.692;11.958;2024-01-11T10:02:23;102911.53;;;6.28;100.00
12991;BME280;6560;57.692;11.958;2024-01-11T10:04:48;102865.19;;;6.00;100.00
12991;BME280;6560;57.692;11.958;2024-01-11T10:07:15;102883.41;;;6.13;100.00
12991;BME280;6560;57.692;11.958;2024-01-11T10:09:44;102885.88;;;6.25;100.00
12991;BME280;6560;57.692;11.958;2024-01-11T10:12:09;102886.38;;;6.50;100.00
12991;BME280;6560;57.692;11.958;2024-01-11T10:14:35;102861.22;;;6.37;100.00
12991;BME280;6560;57.692;11.958;2024-01-11T10:17:00;102891.38;;;6.41;100.00
12991;BME280;6560;57.692;11.958;2024-01-11T10:19:26;102892.88;;;6.46;100.00
12991;BME280;6560;57.692;11.958;2024-01-11T10:21:52;102884.78;;;6.30;100.00
12991;BME280;6560;57.692;11.958;2024-01-11T10:24:18;102907.72;;;6.60;100.00
12991;BME280;6560;57.692;11.958;2024-01-11T10:26:45;102907.19;;;6.69;100.00
12991;BME280;6560;57.692;11.958;2024-01-11T10:29:11;102875.72;;;6.62;100.00
12991;BME280;6560;57.692;11.958;2024-01-11T10:31:38;102896.94;;;6.92;100.00
12991;BME280;6560;57.692;11.958;2024-01-11T10:34:04;102814.84;;;6.58;100.00
12991;BME280;6560;57.692;11.958;2024-01-11T10:36:32;102899.38;;;7.05;100.00
12991;BME280;6560;57.692;11.958;2024-01-11T10:39:01;102863.41;;;6.97;100.00
12991;BME280;6560;57.692;11.958;2024-01-11T10:41:38;102848.78;;;6.92;100.00
12991;BME280;6560;57.692;11.958;2024-01-11T10:44:07;102899.19;;;7.25;100.00
12991;BME280;6560;57.692;11.958;2024-01-11T10:46:34;102871.09;;;7.16;100.00
12991;BME280;6560;57.692;11.958;2024-01-11T10:49:04;102850.88;;;7.01;100.00
12991;BME280;6560;57.692;11.958;2024-01-11T10:51:35;102852.72;;;7.16;100.00
12991;BME280;6560;57.692;11.958;2024-01-11T10:54:02;102910.81;;;7.55;100.00
12991;BME280;6560;57.692;11.958;2024-01-11T10:56:34;102886.06;;;7.53;100.00
12991;BME280;6560;57.692;11.958;2024-01-11T10:59:00;102904.44;;;7.67;100.00
12991;BME280;6560;57.692;11.958;2024-01-11T11:01:27;102901.97;;;7.69;100.00
12991;BME280;6560;57.692;11.958;2024-01-11T11:03:54;102895.44;;;7.44;100.00
12991;BME280;6560;57.692;11.958;2024-01-11T11:06:22;102841.66;;;7.40;100.00
12991;BME280;6560;57.692;11.958;2024-01-11T11:08:49;102874.84;;;7.40;100.00
12991;BME280;6560;57.692;11.958;2024-01-11T11:11:17;102880.25;;;7.48;100.00
12991;BME280;6560;57.692;11.958;2024-01-11T11:13:46;102895.84;;;7.47;100.00
12991;BME280;6560;57.692;11.958;2024-01-11T11:16:15;102877.63;;;7.48;100.00
12991;BME280;6560;57.692;11.958;2024-01-11T11:18:40;102859.84;;;7.39;100.00
12991;BME280;6560;57.692;11.958;2024-01-11T11:21:12;102887.97;;;7.33;100.00
12991;BME280;6560;57.692;11.958;2024-01-11T11:23:37;102836.44;;;7.12;100.00
12991;BME280;6560;57.692;11.958;2024-01-11T11:26:05;102886.06;;;7.53;100.00
12991;BME280;6560;57.692;11.958;2024-01-11T11:28:33;102891.31;;;7.53;100.00
12991;BME280;6560;57.692;11.958;2024-01-11T11:31:00;102905.59;;;7.41;100.00
12991;BME280;6560;57.692;11.958;2024-01-11T11:33:28;102882.31;;;7.44;100.00
12991;BME280;6560;57.692;11.958;2024-01-11T11:35:57;102903.13;;;7.64;100.00
12991;BME280;6560;57.692;11.958;2024-01-11T11:38:27;102881.97;;;7.48;100.00
12991;BME280;6560;57.692;11.958;2024-01-11T11:41:00;102853.25;;;7.49;100.00
12991;BME280;6560;57.692;11.958;2024-01-11T11:43:27;102879.28;;;7.62;100.00
12991;BME280;6560;57.692;11.958;2024-01-11T11:45:54;102892.97;;;7.81;100.00
12991;BME280;6560;57.692;11.958;2024-01-11T11:51:14;102904.75;;;7.91;100.00
12991;BME280;6560;57.692;11.958;2024-01-11T11:53:41;102891.13;;;8.24;100.00
12991;BME280;6560;57.692;11.958;2024-01-11T11:56:08;102853.66;;;8.11;100.00
12991;BME280;6560;57.692;11.958;2024-01-11T11:58:37;102866.31;;;7.85;100.00
12991;BME280;6560;57.692;11.958;2024-01-11T12:01:04;102884.88;;;7.86;100.00
12991;BME280;6560;57.692;11.958;2024-01-11T12:03:33;102899.28;;;7.97;100.00
12991;BME280;6560;57.692;11.958;2024-01-11T12:06:03;102888.31;;;8.22;100.00
12991;BME280;6560;57.692;11.958;2024-01-11T12:08:29;102846.56;;;7.95;100.00
12991;BME280;6560;57.692;11.958;2024-01-11T12:10:55;102891.13;;;8.24;100.00
12991;BME280;6560;57.692;11.958;2024-01-11T12:13:21;102893.56;;;8.36;100.00
12991;BME280;6560;57.692;11.958;2024-01-11T12:15:47;102891.19;;;8.54;100.00
12991;BME280;6560;57.692;11.958;2024-01-11T12:18:12;102891.41;;;8.48;100.00
12991;BME280;6560;57.692;11.958;2024-01-11T12:20:38;102855.28;;;8.31;100.00
12991;BME280;6560;57.692;11.958;2024-01-11T12:23:03;102886.28;;;8.64;100.00
12991;BME280;6560;57.692;11.958;2024-01-11T12:25:30;102893.47;;;8.51;100.00
12991;BME280;6560;57.692;11.958;2024-01-11T12:27:57;102786.44;;;7.69;100.00
12991;BME280;6560;57.692;11.958;2024-01-11T12:30:26;102884.41;;;8.19;100.00
12991;BME280;6560;57.692;11.958;2024-01-11T12:32:53;102876.97;;;8.00;100.00
12991;BME280;6560;57.692;11.958;2024-01-11T12:35:20;102811.47;;;7.95;100.00
12991;BME280;6560;57.692;11.958;2024-01-11T12:37:53;102886.25;;;8.94;100.00
12991;BME280;6560;57.692;11.958;2024-01-11T12:40:19;102853.69;;;8.77;100.00
12991;BME280;6560;57.692;11.958;2024-01-11T12:42:44;102826.72;;;8.27;100.00
12991;BME280;6560;57.692;11.958;2024-01-11T12:45:10;102803.06;;;7.90;100.00
12991;BME280;6560;57.692;11.958;2024-01-11T12:47:35;102870.75;;;8.81;100.00